createdAt,value
2018-11-04T00:02:17.322Z,2.50
2018-11-04T00:04:45.691Z,2.40
2018-11-04T00:07:14.160Z,2.40
2018-11-04T00:09:42.459Z,2.40
2018-11-04T00:12:10.833Z,2.30
2018-11-04T00:14:39.330Z,2.30
2018-11-04T00:17:07.677Z,2.30
2018-11-04T00:19:36.235Z,2.40
2018-11-04T00:22:04.784Z,2.40
2018-11-04T00:24:33.267Z,2.40
2018-11-04T00:27:01.588Z,2.30
2018-11-04T00:29:29.951Z,2.40
2018-11-04T00:31:58.427Z,2.30
2018-11-04T00:34:26.854Z,2.30
2018-11-04T00:36:55.198Z,2.40
2018-11-04T00:39:23.510Z,2.40
2018-11-04T00:41:51.999Z,2.40
2018-11-04T00:44:20.307Z,2.50
2018-11-04T00:46:48.601Z,2.40
2018-11-04T00:49:16.947Z,2.30
2018-11-04T00:51:45.333Z,2.40
2018-11-04T00:54:13.752Z,2.40
2018-11-04T00:56:42.078Z,2.40
2018-11-04T00:59:10.374Z,2.40
2018-11-04T01:01:38.778Z,2.40
2018-11-04T01:04:07.220Z,2.40
2018-11-04T01:06:35.655Z,2.40
2018-11-04T01:09:04.454Z,2.30
2018-11-04T01:11:32.744Z,2.30
2018-11-04T01:14:01.056Z,2.40
2018-11-04T01:16:29.384Z,2.40
2018-11-04T01:18:58.289Z,2.40
2018-11-04T01:21:26.635Z,2.50
2018-11-04T01:23:56.282Z,2.50
2018-11-04T01:26:24.676Z,2.60
2018-11-04T01:28:52.990Z,2.70
2018-11-04T01:31:21.406Z,2.70
2018-11-04T01:33:49.742Z,2.70
2018-11-04T01:36:18.474Z,2.60
2018-11-04T01:38:46.800Z,2.60
2018-11-04T01:41:15.129Z,2.60
2018-11-04T01:43:43.494Z,2.60
2018-11-04T01:46:12.008Z,2.60
2018-11-04T01:48:40.470Z,2.60
2018-11-04T01:51:08.767Z,2.70
2018-11-04T01:53:37.198Z,2.80
2018-11-04T01:56:05.578Z,2.70
2018-11-04T01:58:33.898Z,2.70
2018-11-04T02:01:02.234Z,2.70
2018-11-04T02:03:30.836Z,2.80
2018-11-04T02:05:59.254Z,2.80
2018-11-04T02:08:27.576Z,2.90
2018-11-04T02:10:55.950Z,2.90
2018-11-04T02:13:24.298Z,2.90
2018-11-04T02:15:52.732Z,3.00
2018-11-04T02:18:21.058Z,3.00
2018-11-04T02:20:49.570Z,3.10
2018-11-04T02:23:17.889Z,3.20
2018-11-04T02:25:46.234Z,3.20
2018-11-04T02:28:14.546Z,3.30
2018-11-04T02:30:42.876Z,3.30
2018-11-04T02:33:11.196Z,3.30
2018-11-04T02:35:40.537Z,3.40
2018-11-04T02:38:08.870Z,3.40
2018-11-04T02:40:37.202Z,3.50
2018-11-04T02:43:05.543Z,3.50
2018-11-04T02:45:34.120Z,3.50
2018-11-04T02:48:02.500Z,3.60
2018-11-04T02:50:30.870Z,3.60
2018-11-04T02:52:59.191Z,3.60
2018-11-04T02:55:27.681Z,3.60
2018-11-04T02:57:56.010Z,3.60
2018-11-04T03:00:24.338Z,3.80
2018-11-04T03:02:52.689Z,3.80
2018-11-04T03:05:21.714Z,3.80
2018-11-04T03:07:50.065Z,3.80
2018-11-04T03:10:18.446Z,3.80
2018-11-04T03:12:46.753Z,3.80
2018-11-04T03:15:15.088Z,3.70
2018-11-04T03:17:43.410Z,3.90
2018-11-04T03:20:11.701Z,3.80
2018-11-04T03:22:41.049Z,3.80
2018-11-04T03:25:09.414Z,3.70
2018-11-04T03:27:37.709Z,3.80
2018-11-04T03:30:07.308Z,3.80
2018-11-04T03:32:35.665Z,3.90
2018-11-04T03:35:04.045Z,3.90
2018-11-04T03:37:32.358Z,3.90
2018-11-04T03:40:00.816Z,3.90
2018-11-04T03:42:29.241Z,3.90
2018-11-04T03:44:57.586Z,4.00
2018-11-04T03:47:25.938Z,4.00
2018-11-04T03:49:54.238Z,4.00
2018-11-04T03:52:23.095Z,4.20
2018-11-04T03:54:51.393Z,4.20
2018-11-04T03:57:19.749Z,4.20
2018-11-04T03:59:48.053Z,4.40
2018-11-04T04:02:16.473Z,4.40
2018-11-04T04:04:47.653Z,4.50
2018-11-04T04:07:15.980Z,4.50
2018-11-04T04:09:44.276Z,4.40
2018-11-04T04:12:12.666Z,4.50
2018-11-04T04:14:40.969Z,4.50
2018-11-04T04:17:09.289Z,4.50
2018-11-04T04:19:37.620Z,4.40
2018-11-04T04:22:06.160Z,4.50
2018-11-04T04:24:34.499Z,4.60
2018-11-04T04:27:04.149Z,4.60
2018-11-04T04:29:32.446Z,4.60
2018-11-04T04:32:00.791Z,4.70
2018-11-04T04:34:29.166Z,4.80
2018-11-04T04:36:57.817Z,4.70
2018-11-04T04:39:26.128Z,4.80
2018-11-04T04:41:54.624Z,4.90
2018-11-04T04:44:22.964Z,4.90
2018-11-04T04:46:51.290Z,4.90
2018-11-04T04:49:19.595Z,4.90
2018-11-04T04:51:47.889Z,5.00
2018-11-04T04:54:16.587Z,4.90
2018-11-04T04:56:44.910Z,5.00
2018-11-04T04:59:13.312Z,5.00
2018-11-04T05:01:41.590Z,5.00
2018-11-04T05:04:09.900Z,5.10
2018-11-04T05:06:38.209Z,5.00
2018-11-04T05:09:07.618Z,5.10
2018-11-04T05:11:35.951Z,5.10
2018-11-04T05:14:04.305Z,5.20
2018-11-04T05:16:32.718Z,5.30
2018-11-04T05:19:01.014Z,5.40
2018-11-04T05:21:29.369Z,5.30
2018-11-04T05:23:57.698Z,5.30
2018-11-04T05:26:26.005Z,5.40
2018-11-04T05:28:54.416Z,5.30
2018-11-04T05:31:22.734Z,5.30
2018-11-04T05:33:51.054Z,5.30
2018-11-04T05:36:19.387Z,5.40
2018-11-04T05:38:48.218Z,5.50
2018-11-04T05:41:16.685Z,5.40
2018-11-04T05:43:45.075Z,5.40
2018-11-04T05:46:13.411Z,5.40
2018-11-04T05:48:41.713Z,5.40
2018-11-04T05:51:10.092Z,5.60
2018-11-04T05:53:40.359Z,5.50
2018-11-04T05:56:09.713Z,5.50
2018-11-04T05:58:38.083Z,5.60
2018-11-04T06:01:06.924Z,5.50
2018-11-04T06:03:35.260Z,5.50
2018-11-04T06:06:03.640Z,5.60
2018-11-04T06:08:32.102Z,5.60
2018-11-04T06:11:00.435Z,5.60
2018-11-04T06:13:28.845Z,5.60
2018-11-04T06:15:57.174Z,5.60
2018-11-04T06:18:25.548Z,5.60
2018-11-04T06:20:53.959Z,5.70
2018-11-04T06:23:22.349Z,5.60
2018-11-04T06:25:50.671Z,5.70
2018-11-04T06:28:19.558Z,5.70
2018-11-04T06:30:47.867Z,5.70
2018-11-04T06:33:16.259Z,5.80
2018-11-04T06:35:44.553Z,5.80
2018-11-04T06:38:12.876Z,5.80
2018-11-04T06:40:41.201Z,5.80
2018-11-04T06:43:09.528Z,5.80
2018-11-04T06:45:38.665Z,5.80
2018-11-04T06:48:07.740Z,5.90
2018-11-04T06:50:36.833Z,5.90
2018-11-04T06:53:06.017Z,5.90
2018-11-04T06:55:34.412Z,6.00
2018-11-04T06:58:03.509Z,6.00
2018-11-04T07:00:31.944Z,6.00
2018-11-04T07:03:00.280Z,6.10
2018-11-04T07:05:28.675Z,6.10
2018-11-04T07:07:57.273Z,6.20
2018-11-04T07:10:25.620Z,6.10
2018-11-04T07:12:53.999Z,6.20
2018-11-04T07:15:23.501Z,6.20
2018-11-04T07:17:51.933Z,6.40
2018-11-04T07:20:20.996Z,6.30
2018-11-04T07:22:49.501Z,6.40
2018-11-04T07:25:17.839Z,6.50
2018-11-04T07:27:46.157Z,6.60
2018-11-04T07:30:14.505Z,6.70
2018-11-04T07:32:42.839Z,6.60
2018-11-04T07:35:11.367Z,6.70
2018-11-04T07:37:40.462Z,6.70
2018-11-04T07:40:09.401Z,6.80
2018-11-04T07:42:38.553Z,6.80
2018-11-04T07:45:07.919Z,6.80
2018-11-04T07:47:36.600Z,6.90
2018-11-04T07:50:09.303Z,7.00
2018-11-04T07:52:37.865Z,7.00
2018-11-04T07:55:09.016Z,7.00
2018-11-04T07:57:39.856Z,7.20
2018-11-04T08:00:10.886Z,7.10
2018-11-04T08:02:39.656Z,7.20
2018-11-04T08:05:09.199Z,7.20
2018-11-04T08:07:38.444Z,7.30
2018-11-04T08:10:08.574Z,7.50
2018-11-04T08:12:37.182Z,7.40
2018-11-04T08:15:05.825Z,7.30
2018-11-04T08:17:34.177Z,7.30
2018-11-04T08:20:02.673Z,7.60
2018-11-04T08:22:31.349Z,7.60
2018-11-04T08:24:59.719Z,7.60
2018-11-04T08:27:32.597Z,7.50
2018-11-04T08:30:05.602Z,7.50
2018-11-04T08:32:38.912Z,7.70
2018-11-04T08:35:07.380Z,7.70
2018-11-04T08:37:36.129Z,7.90
2018-11-04T08:40:08.146Z,8.10
2018-11-04T08:42:41.390Z,8.10
2018-11-04T08:45:15.005Z,8.00
2018-11-04T08:47:44.545Z,8.00
2018-11-04T08:50:13.047Z,8.10
2018-11-04T08:52:42.760Z,8.20
2018-11-04T08:55:11.321Z,8.40
2018-11-04T08:57:39.659Z,8.40
2018-11-04T09:00:10.677Z,8.50
2018-11-04T09:02:39.112Z,8.60
2018-11-04T09:05:08.049Z,8.60
2018-11-04T09:07:36.518Z,8.60
2018-11-04T09:10:10.379Z,8.80
2018-11-04T09:12:38.688Z,9.00
2018-11-04T09:15:07.911Z,9.00
2018-11-04T09:17:36.247Z,8.80
2018-11-04T09:20:08.260Z,8.80
2018-11-04T09:22:36.772Z,8.90
2018-11-04T09:25:06.722Z,9.00
2018-11-04T09:27:35.981Z,8.90
2018-11-04T09:30:04.444Z,8.90
2018-11-04T09:32:32.870Z,8.80
2018-11-04T09:35:01.443Z,9.00
2018-11-04T09:37:29.933Z,9.10
2018-11-04T09:39:58.312Z,9.00
2018-11-04T09:42:26.657Z,9.00
2018-11-04T09:44:55.169Z,9.20
2018-11-04T09:47:23.503Z,9.10
2018-11-04T09:49:51.901Z,9.20
2018-11-04T09:52:20.203Z,9.30
2018-11-04T09:54:48.538Z,9.40
2018-11-04T09:57:17.007Z,9.40
2018-11-04T09:59:45.656Z,9.60
2018-11-04T10:02:13.993Z,9.40
2018-11-04T10:04:42.341Z,9.40
2018-11-04T10:07:10.744Z,9.60
2018-11-04T10:09:38.978Z,9.70
2018-11-04T10:12:07.649Z,9.50
2018-11-04T10:14:37.355Z,9.50
2018-11-04T10:17:05.742Z,9.60
2018-11-04T10:19:34.326Z,9.60
2018-11-04T10:22:02.563Z,9.60
2018-11-04T10:24:30.910Z,9.80
2018-11-04T10:26:59.387Z,9.90
2018-11-04T10:29:28.075Z,10.00
2018-11-04T10:31:56.457Z,10.00
2018-11-04T10:34:25.897Z,10.00
2018-11-04T10:36:54.248Z,10.00
2018-11-04T10:39:22.578Z,10.00
2018-11-04T10:41:50.917Z,10.10
2018-11-04T10:44:19.368Z,10.30
2018-11-04T10:46:47.749Z,10.20
2018-11-04T10:49:16.215Z,10.40
2018-11-04T10:51:44.617Z,10.40
2018-11-04T10:54:13.159Z,10.40
2018-11-04T10:56:41.818Z,10.30
2018-11-04T10:59:10.208Z,10.50
2018-11-04T11:01:40.944Z,10.60
2018-11-04T11:04:09.324Z,10.60
2018-11-04T11:11:32.028Z,10.80
2018-11-04T11:14:00.359Z,11.10
2018-11-04T11:16:28.770Z,11.10
2018-11-04T11:18:57.160Z,11.30
2018-11-04T11:21:25.587Z,11.20
2018-11-04T11:23:53.978Z,11.30
2018-11-04T11:26:22.336Z,11.30
2018-11-04T11:28:50.765Z,11.20
2018-11-04T11:31:20.094Z,11.20
2018-11-04T11:33:48.464Z,11.30
2018-11-04T11:36:16.836Z,11.40
2018-11-04T11:38:45.167Z,11.50
2018-11-04T11:41:13.727Z,11.60
2018-11-04T11:43:43.149Z,11.70
2018-11-04T11:46:11.719Z,11.80
2018-11-04T11:48:40.068Z,11.60
2018-11-04T11:51:08.475Z,11.60
2018-11-04T11:53:36.841Z,11.50
2018-11-04T11:56:07.748Z,11.50
2018-11-04T11:58:36.983Z,11.50
2018-11-04T12:01:05.836Z,11.50
2018-11-04T12:03:39.394Z,11.40
2018-11-04T12:06:12.286Z,11.60
2018-11-04T12:08:43.628Z,11.70
2018-11-04T12:11:12.218Z,11.80
2018-11-04T12:13:43.353Z,11.90
2018-11-04T12:18:46.566Z,11.70
2018-11-04T12:21:14.906Z,11.70
2018-11-04T12:23:43.592Z,11.80
2018-11-04T12:26:12.834Z,11.80
2018-11-04T12:28:41.348Z,11.80
2018-11-04T12:31:09.755Z,11.90
2018-11-04T12:33:38.221Z,11.90
2018-11-04T12:36:06.628Z,11.80
2018-11-04T12:38:35.035Z,12.00
2018-11-04T12:41:03.482Z,12.00
2018-11-04T12:43:31.833Z,11.80
2018-11-04T12:46:00.254Z,11.90
2018-11-04T12:48:28.671Z,11.90
2018-11-04T12:50:57.297Z,11.90
2018-11-04T12:53:25.731Z,12.00
2018-11-04T12:55:54.247Z,12.10
2018-11-04T12:58:23.722Z,12.30
2018-11-04T13:00:52.130Z,12.30
2018-11-04T13:03:20.472Z,12.20
2018-11-04T13:05:48.784Z,12.20
2018-11-04T13:08:17.149Z,12.10
2018-11-04T13:10:45.487Z,12.10
2018-11-04T13:13:14.189Z,12.10
2018-11-04T13:15:42.564Z,12.20
2018-11-04T13:18:11.037Z,12.20
2018-11-04T13:20:39.669Z,12.20
2018-11-04T13:23:08.167Z,12.20
2018-11-04T13:25:36.690Z,12.30
2018-11-04T13:28:05.423Z,12.30
2018-11-04T13:30:33.846Z,12.20
2018-11-04T13:33:02.224Z,12.20
2018-11-04T13:35:31.026Z,12.20
2018-11-04T13:37:59.477Z,12.30
2018-11-04T13:40:27.842Z,12.30
2018-11-04T13:42:56.195Z,12.30
2018-11-04T13:45:24.638Z,12.20
2018-11-04T13:47:52.924Z,12.20
2018-11-04T13:50:21.293Z,12.10
2018-11-04T13:52:49.713Z,12.10
2018-11-04T13:55:18.053Z,12.10
2018-11-04T13:57:46.413Z,12.20
2018-11-04T14:00:16.811Z,12.10
2018-11-04T14:02:47.520Z,12.10
2018-11-04T14:05:15.873Z,12.10
2018-11-04T14:07:44.310Z,12.10
2018-11-04T14:10:14.215Z,12.10
2018-11-04T14:12:43.437Z,12.00
2018-11-04T14:15:12.616Z,12.10
2018-11-04T14:17:41.127Z,12.00
2018-11-04T14:20:10.907Z,12.00
2018-11-04T14:22:39.807Z,12.10
2018-11-04T14:25:09.893Z,12.00
2018-11-04T14:27:39.379Z,12.00
2018-11-04T14:30:10.675Z,12.00
2018-11-04T14:32:41.734Z,12.00
2018-11-04T14:35:11.203Z,12.10
2018-11-04T14:37:40.914Z,12.10
2018-11-04T14:40:11.171Z,12.00
2018-11-04T14:42:40.520Z,12.00
2018-11-04T14:45:09.064Z,12.00
2018-11-04T14:47:38.285Z,12.00
2018-11-04T14:50:11.570Z,12.00
2018-11-04T14:52:40.114Z,12.00
2018-11-04T14:55:08.648Z,11.90
2018-11-04T14:57:37.667Z,12.00
2018-11-04T15:00:08.526Z,11.90
2018-11-04T15:02:36.912Z,11.90
2018-11-04T15:05:06.690Z,11.80
2018-11-04T15:07:35.513Z,11.80
2018-11-04T15:10:04.118Z,11.80
2018-11-04T15:12:33.175Z,11.80
2018-11-04T15:15:01.702Z,11.80
2018-11-04T15:17:30.297Z,11.70
2018-11-04T15:20:37.210Z,11.70
2018-11-04T15:23:05.901Z,11.60
2018-11-04T15:25:34.468Z,11.60
2018-11-04T15:28:03.092Z,11.60
2018-11-04T15:30:31.814Z,11.60
2018-11-04T15:33:00.391Z,11.50
2018-11-04T15:35:28.880Z,11.50
2018-11-04T15:37:57.380Z,11.50
2018-11-04T15:40:26.192Z,11.50
2018-11-04T15:42:54.547Z,11.40
2018-11-04T15:45:23.093Z,11.40
2018-11-04T15:47:51.712Z,11.40
2018-11-04T15:50:24.271Z,11.40
2018-11-04T15:52:56.597Z,11.30
2018-11-04T15:55:29.160Z,11.40
2018-11-04T15:58:04.411Z,11.20
2018-11-04T16:00:37.513Z,11.20
2018-11-04T16:03:11.904Z,11.20
2018-11-04T16:05:43.218Z,11.10
2018-11-04T16:08:12.646Z,11.10
2018-11-04T16:10:41.241Z,11.10
2018-11-04T16:13:13.681Z,11.20
2018-11-04T16:15:42.212Z,11.10
2018-11-04T16:18:10.952Z,11.20
2018-11-04T16:20:39.452Z,11.20
2018-11-04T16:23:07.925Z,11.10
2018-11-04T16:25:36.488Z,11.10
2018-11-04T16:28:04.884Z,11.10
2018-11-04T16:30:33.428Z,11.10
2018-11-04T16:33:02.082Z,11.00
2018-11-04T16:35:30.445Z,11.10
2018-11-04T16:37:58.986Z,11.10
2018-11-04T16:40:27.506Z,11.10
2018-11-04T16:42:56.035Z,11.10
2018-11-04T16:45:24.997Z,11.10
2018-11-04T16:47:55.258Z,11.20
2018-11-04T16:50:23.581Z,11.20
2018-11-04T16:52:51.917Z,11.10
2018-11-04T16:55:20.429Z,11.10
2018-11-04T16:57:48.773Z,11.10
2018-11-04T17:00:17.245Z,11.00
2018-11-04T17:02:45.597Z,11.10
2018-11-04T17:05:14.155Z,11.10
2018-11-04T17:07:43.037Z,11.10
2018-11-04T17:10:11.491Z,11.10
2018-11-04T17:12:40.352Z,11.10
2018-11-04T17:15:10.381Z,11.10
2018-11-04T17:17:38.974Z,11.10
2018-11-04T17:20:10.924Z,11.10
2018-11-04T17:22:39.633Z,11.10
2018-11-04T17:25:08.690Z,11.00
2018-11-04T17:27:38.752Z,11.00
2018-11-04T17:30:13.951Z,10.90
2018-11-04T17:32:42.567Z,10.90
2018-11-04T17:35:12.965Z,10.90
2018-11-04T17:37:42.197Z,10.90
2018-11-04T17:40:11.779Z,10.90
2018-11-04T17:42:40.305Z,10.80
2018-11-04T17:45:10.630Z,10.80
2018-11-04T17:47:39.180Z,10.80
2018-11-04T17:50:10.232Z,10.70
2018-11-04T17:52:38.625Z,10.70
2018-11-04T17:55:07.605Z,10.70
2018-11-04T17:57:38.174Z,10.70
2018-11-04T18:00:12.688Z,10.60
2018-11-04T18:02:42.337Z,10.70
2018-11-04T18:05:12.579Z,10.70
2018-11-04T18:07:41.931Z,10.70
2018-11-04T18:10:11.402Z,10.80
2018-11-04T18:12:40.024Z,10.80
2018-11-04T18:15:09.294Z,10.80
2018-11-04T18:17:38.983Z,10.80
2018-11-04T18:20:09.010Z,10.80
2018-11-04T18:22:37.719Z,10.80
2018-11-04T18:25:07.700Z,10.70
2018-11-04T18:27:36.250Z,10.70
2018-11-04T18:30:06.053Z,10.70
2018-11-04T18:32:34.679Z,10.70
2018-11-04T18:35:03.139Z,10.70
2018-11-04T18:37:32.039Z,10.70
2018-11-04T18:40:01.481Z,10.60
2018-11-04T18:42:29.929Z,10.70
2018-11-04T18:44:58.522Z,10.50
2018-11-04T18:47:27.387Z,10.50
2018-11-04T18:49:55.807Z,10.50
2018-11-04T18:52:24.337Z,10.60
2018-11-04T18:54:52.704Z,10.60
2018-11-04T18:57:21.184Z,10.60
2018-11-04T18:59:50.017Z,10.60
2018-11-04T19:02:19.330Z,10.60
2018-11-04T19:04:47.781Z,10.60
2018-11-04T19:07:16.477Z,10.60
2018-11-04T19:09:46.519Z,10.60
2018-11-04T19:12:15.821Z,10.60
2018-11-04T19:14:44.187Z,10.60
2018-11-04T19:17:14.452Z,10.60
2018-11-04T19:19:42.930Z,10.50
2018-11-04T19:22:11.609Z,10.50
2018-11-04T19:24:40.054Z,10.50
2018-11-04T19:27:08.508Z,10.50
2018-11-04T19:29:37.377Z,10.50
2018-11-04T19:32:06.511Z,10.50
2018-11-04T19:34:35.005Z,10.60
2018-11-04T19:37:03.455Z,10.60
2018-11-04T19:39:31.893Z,10.50
2018-11-04T19:42:00.389Z,10.60
2018-11-04T19:44:29.357Z,10.50
2018-11-04T19:46:57.990Z,10.50
2018-11-04T19:49:26.534Z,10.50
2018-11-04T19:51:55.091Z,10.60
2018-11-04T19:54:23.840Z,10.60
2018-11-04T19:56:52.360Z,10.60
2018-11-04T19:59:20.910Z,10.60
2018-11-04T20:01:49.190Z,10.60
2018-11-04T20:04:18.428Z,10.40
2018-11-04T20:06:47.063Z,10.40
2018-11-04T20:09:17.393Z,10.40
2018-11-04T20:14:23.423Z,10.40
2018-11-04T20:16:53.027Z,10.40
2018-11-04T20:19:26.868Z,10.50
2018-11-04T20:21:55.807Z,10.50
2018-11-04T20:24:29.781Z,10.40
2018-11-04T20:26:58.419Z,10.40
2018-11-04T20:29:27.227Z,10.40
2018-11-04T20:32:01.064Z,10.40
2018-11-04T20:34:29.673Z,10.40
2018-11-04T20:36:58.128Z,10.40
2018-11-04T20:39:31.877Z,10.40
2018-11-04T20:42:00.363Z,10.40
2018-11-04T20:44:29.985Z,10.40
2018-11-04T20:46:58.796Z,10.40
2018-11-04T20:49:34.978Z,10.50
2018-11-04T20:52:03.491Z,10.50
2018-11-04T20:54:31.913Z,10.50
2018-11-04T20:57:05.698Z,10.50
2018-11-04T20:59:35.296Z,10.60
2018-11-04T21:02:03.760Z,10.60
2018-11-04T21:04:32.160Z,10.50
2018-11-04T21:07:00.489Z,10.50
2018-11-04T21:09:28.831Z,10.50
2018-11-04T21:11:57.234Z,10.50
2018-11-04T21:14:32.340Z,10.40
2018-11-04T21:17:00.983Z,10.40
2018-11-04T21:19:29.271Z,10.40
2018-11-04T21:21:57.642Z,10.40
2018-11-04T21:24:26.111Z,10.50
2018-11-04T21:26:54.820Z,10.50
2018-11-04T21:29:23.573Z,10.40
2018-11-04T21:31:53.791Z,10.30
2018-11-04T21:34:22.195Z,10.30
2018-11-04T21:36:50.550Z,10.20
2018-11-04T21:39:18.932Z,10.20
2018-11-04T21:41:47.284Z,10.20
2018-11-04T21:44:15.726Z,10.20
2018-11-04T21:46:43.939Z,10.20
2018-11-04T21:49:12.563Z,10.20
2018-11-04T21:51:40.930Z,10.20
2018-11-04T21:54:09.265Z,10.10
2018-11-04T21:56:37.868Z,10.10
2018-11-04T21:59:06.276Z,10.10
2018-11-04T22:01:34.610Z,10.10
2018-11-04T22:04:03.210Z,10.10
2018-11-04T22:06:31.447Z,10.00
2018-11-04T22:08:59.794Z,9.90
2018-11-04T22:11:28.193Z,10.00
2018-11-04T22:13:56.742Z,10.00
2018-11-04T22:16:24.938Z,10.10
2018-11-04T22:18:53.291Z,10.10
2018-11-04T22:21:21.625Z,10.10
2018-11-04T22:23:50.054Z,10.20
2018-11-04T22:26:18.466Z,10.20
2018-11-04T22:28:46.920Z,10.20
2018-11-04T22:31:15.285Z,10.20
2018-11-04T22:33:43.610Z,10.20
2018-11-04T22:36:12.251Z,10.20
2018-11-04T22:38:40.687Z,10.10
2018-11-04T22:41:09.120Z,10.10
2018-11-04T22:43:37.480Z,10.10
2018-11-04T22:46:06.103Z,10.10
2018-11-04T22:48:34.444Z,10.00
2018-11-04T22:51:02.796Z,10.00
2018-11-04T22:53:31.322Z,10.10
2018-11-04T22:55:59.659Z,10.10
2018-11-04T22:58:28.204Z,10.00
2018-11-04T23:01:00.450Z,10.00
2018-11-04T23:03:29.255Z,10.00
2018-11-04T23:06:01.907Z,10.00
2018-11-04T23:08:30.396Z,9.90
2018-11-04T23:10:58.782Z,10.00
2018-11-04T23:13:27.271Z,9.90
2018-11-04T23:15:55.726Z,9.90
2018-11-04T23:18:24.041Z,9.90
2018-11-04T23:20:52.604Z,9.90
2018-11-04T23:23:21.374Z,9.90
2018-11-04T23:25:49.742Z,9.80
2018-11-04T23:28:18.106Z,9.70
2018-11-04T23:30:46.404Z,9.70
2018-11-04T23:33:14.697Z,9.60
2018-11-04T23:35:43.047Z,9.60
2018-11-04T23:38:12.463Z,9.70
2018-11-04T23:40:40.735Z,9.70
2018-11-04T23:43:10.177Z,9.60
2018-11-04T23:45:38.513Z,9.60
2018-11-04T23:48:06.849Z,9.60
2018-11-04T23:50:35.181Z,9.70
2018-11-04T23:53:03.548Z,9.80
2018-11-04T23:55:31.855Z,9.90
2018-11-04T23:58:00.273Z,9.90
